Map

Track Data

SID SEASON NUMBER BASIN SUBBASIN NAME ISO_TIME NATURE LAT LON WMO_WIND WMO_PRES WMO_AGENCY TRACK_TYPE DIST2LAND LANDFALL IFLAG USA_AGENCY USA_ATCF_ID USA_LAT USA_LON USA_RECORD USA_STATUS USA_WIND USA_PRES USA_SSHS USA_R34_NE USA_R34_SE USA_R34_SW USA_R34_NW USA_R50_NE USA_R50_SE USA_R50_SW USA_R50_NW USA_R64_NE USA_R64_SE USA_R64_SW USA_R64_NW USA_POCI USA_ROCI USA_RMW USA_EYE TOKYO_LAT TOKYO_LON TOKYO_GRADE TOKYO_WIND TOKYO_PRES TOKYO_R50_DIR TOKYO_R50_LONG TOKYO_R50_SHORT TOKYO_R30_DIR TOKYO_R30_LONG TOKYO_R30_SHORT TOKYO_LAND CMA_LAT CMA_LON CMA_CAT CMA_WIND CMA_PRES HKO_LAT HKO_LON HKO_CAT HKO_WIND HKO_PRES NEWDELHI_LAT NEWDELHI_LON NEWDELHI_GRADE NEWDELHI_WIND NEWDELHI_PRES NEWDELHI_CI NEWDELHI_DP NEWDELHI_POCI REUNION_LAT REUNION_LON REUNION_TYPE REUNION_WIND REUNION_PRES REUNION_TNUM REUNION_CI REUNION_RMW REUNION_R34_NE REUNION_R34_SE REUNION_R34_SW REUNION_R34_NW REUNION_R50_NE REUNION_R50_SE REUNION_R50_SW REUNION_R50_NW REUNION_R64_NE REUNION_R64_SE REUNION_R64_SW REUNION_R64_NW BOM_LAT BOM_LON BOM_TYPE BOM_WIND BOM_PRES BOM_TNUM BOM_CI BOM_RMW BOM_R34_NE BOM_R34_SE BOM_R34_SW BOM_R34_NW BOM_R50_NE BOM_R50_SE BOM_R50_SW BOM_R50_NW BOM_R64_NE BOM_R64_SE BOM_R64_SW BOM_R64_NW BOM_ROCI BOM_POCI BOM_EYE BOM_POS_METHOD BOM_PRES_METHOD NADI_LAT NADI_LON NADI_CAT NADI_WIND NADI_PRES WELLINGTON_LAT WELLINGTON_LON WELLINGTON_WIND WELLINGTON_PRES DS824_LAT DS824_LON DS824_STAGE DS824_WIND DS824_PRES TD9636_LAT TD9636_LON TD9636_STAGE TD9636_WIND TD9636_PRES TD9635_LAT TD9635_LON TD9635_WIND TD9635_PRES TD9635_ROCI NEUMANN_LAT NEUMANN_LON NEUMANN_CLASS NEUMANN_WIND NEUMANN_PRES MLC_LAT MLC_LON MLC_CLASS MLC_WIND MLC_PRES USA_GUST BOM_GUST BOM_GUST_PER REUNION_GUST REUNION_GUST_PER USA_SEAHGT USA_SEARAD_NE USA_SEARAD_SE USA_SEARAD_SW USA_SEARAD_NW STORM_SPEED STORM_DIR
1899210N17291 1899 20 NA CS NOT_NAMED 1899-07-28 12:00:00 TS 17.0000 -69.5000 70 hurdat_atl main 153 67 O_____________ hurdat_atl AL021899 17.0000 -69.5000 HU 70 1 18 317
1899210N17291 1899 20 NA CS NOT_NAMED 1899-07-28 15:00:00 TS 17.6404 -70.1319 main 67 10 P_____________ AL021899 17.6404 -70.1319 HU 70 1 18 316
1899210N17291 1899 20 NA CS NOT_NAMED 1899-07-28 18:00:00 TS 18.3000 -70.8000 70 hurdat_atl main 10 0 O_____________ hurdat_atl AL021899 18.3000 -70.8000 HU 70 1 19 315
1899210N17291 1899 20 NA NA NOT_NAMED 1899-07-28 21:00:00 TS 18.9798 -71.5276 main 0 0 P_____________ AL021899 18.9798 -71.5276 HU 60 0 19 313
1899210N17291 1899 20 NA NA NOT_NAMED 1899-07-29 00:00:00 TS 19.6000 -72.3000 50 hurdat_atl main 0 0 O_____________ hurdat_atl AL021899 19.6000 -72.3000 TS 50 0 18 307
1899210N17291 1899 20 NA NA NOT_NAMED 1899-07-29 03:00:00 TS 20.0872 -73.0932 main 22 22 P_____________ AL021899 20.0872 -73.0932 TS 45 0 18 301
1899210N17291 1899 20 NA NA NOT_NAMED 1899-07-29 06:00:00 TS 20.5000 -73.9000 40 hurdat_atl main 39 24 O_____________ hurdat_atl AL021899 20.5000 -73.9000 TS 40 0 17 298
1899210N17291 1899 20 NA NA NOT_NAMED 1899-07-29 09:00:00 TS 20.9149 -74.7227 main 33 30 P_____________ AL021899 20.9149 -74.7227 TS 40 0 17 298
1899210N17291 1899 20 NA NA NOT_NAMED 1899-07-29 12:00:00 TS 21.3000 -75.5000 40 hurdat_atl main 35 33 O_____________ hurdat_atl AL021899 21.3000 -75.5000 TS 40 0 15 298
1899210N17291 1899 20 NA NA NOT_NAMED 1899-07-29 15:00:00 TS 21.6420 -76.1733 main 44 44 P_____________ AL021899 21.6420 -76.1733 TS 40 0 14 300
1899210N17291 1899 20 NA NA NOT_NAMED 1899-07-29 18:00:00 TS 22.0000 -76.8000 40 hurdat_atl main 45 39 O_____________ hurdat_atl AL021899 22.0000 -76.8000 TS 40 0 14 303
1899210N17291 1899 20 NA NA NOT_NAMED 1899-07-29 21:00:00 TS 22.4121 -77.4358 main 69 63 P_____________ AL021899 22.4121 -77.4358 TS 40 0 15 307
1899210N17291 1899 20 NA NA NOT_NAMED 1899-07-30 00:00:00 TS 22.9000 -78.1000 40 hurdat_atl main 73 73 O_____________ hurdat_atl AL021899 22.9000 -78.1000 TS 40 0 17 310
1899210N17291 1899 20 NA NA NOT_NAMED 1899-07-30 03:00:00 TS 23.4786 -78.8359 main 112 112 P_____________ AL021899 23.4786 -78.8359 TS 40 0 18 311
1899210N17291 1899 20 NA NA NOT_NAMED 1899-07-30 06:00:00 TS 24.1000 -79.6000 40 hurdat_atl main 124 44 O_____________ hurdat_atl AL021899 24.1000 -79.6000 TS 40 0 19 311
1899210N17291 1899 20 NA NA NOT_NAMED 1899-07-30 09:00:00 TS 24.7403 -80.4100 main 44 24 P_____________ AL021899 24.7403 -80.4100 TS 40 0 18 311
1899210N17291 1899 20 NA NA NOT_NAMED 1899-07-30 10:00:00 TS 24.9000 -80.6000 40 hurdat_atl main 24 10 O_____________ hurdat_atl AL021899 24.9000 -80.6000 L TS 40 0 10 315
1899210N17291 1899 20 NA GM NOT_NAMED 1899-07-30 12:00:00 TS 25.1000 -80.8000 35 hurdat_atl main 10 0 O_____________ hurdat_atl AL021899 25.1000 -80.8000 TS 35 0 10 314
1899210N17291 1899 20 NA GM NOT_NAMED 1899-07-30 15:00:00 TS 25.4515 -81.2342 main 0 0 P_____________ AL021899 25.4515 -81.2342 TS 35 0 11 311
1899210N17291 1899 20 NA GM NOT_NAMED 1899-07-30 18:00:00 TS 25.8000 -81.7000 35 hurdat_atl main 11 9 O_____________ hurdat_atl AL021899 25.8000 -81.7000 TS 35 0 9 311
1899210N17291 1899 20 NA GM NOT_NAMED 1899-07-30 21:00:00 TS 26.0572 -82.0155 main 19 19 P_____________ AL021899 26.0572 -82.0155 TS 40 0 7 313
1899210N17291 1899 20 NA GM NOT_NAMED 1899-07-31 00:00:00 TS 26.3000 -82.3000 45 hurdat_atl main 37 37 O_____________ hurdat_atl AL021899 26.3000 -82.3000 TS 45 0 8 313
1899210N17291 1899 20 NA GM NOT_NAMED 1899-07-31 03:00:00 TS 26.5926 -82.6574 main 45 41 P_____________ AL021899 26.5926 -82.6574 TS 50 0 9 314
1899210N17291 1899 20 NA GM NOT_NAMED 1899-07-31 06:00:00 TS 26.9000 -83.0000 55 hurdat_atl main 59 54 O_____________ hurdat_atl AL021899 26.9000 -83.0000 TS 55 0 8 318
1899210N17291 1899 20 NA GM NOT_NAMED 1899-07-31 09:00:00 TS 27.2149 -83.2801 main 70 69 P_____________ AL021899 27.2149 -83.2801 TS 60 0 7 323
1899210N17291 1899 20 NA GM NOT_NAMED 1899-07-31 12:00:00 TS 27.5000 -83.5000 65 hurdat_atl main 74 67 O_____________ hurdat_atl AL021899 27.5000 -83.5000 HU 65 1 6 326
1899210N17291 1899 20 NA GM NOT_NAMED 1899-07-31 15:00:00 TS 27.7149 -83.6652 main 81 79 P_____________ AL021899 27.7149 -83.6652 HU 70 1 5 326
1899210N17291 1899 20 NA GM NOT_NAMED 1899-07-31 18:00:00 TS 27.9000 -83.8000 75 hurdat_atl main 88 88 O_____________ hurdat_atl AL021899 27.9000 -83.8000 HU 75 1 5 326
1899210N17291 1899 20 NA GM NOT_NAMED 1899-07-31 21:00:00 TS 28.0925 -83.9575 main 110 110 P_____________ AL021899 28.0925 -83.9575 HU 80 1 5 326
1899210N17291 1899 20 NA GM NOT_NAMED 1899-08-01 00:00:00 TS 28.3000 -84.1000 85 hurdat_atl main 125 125 O_____________ hurdat_atl AL021899 28.3000 -84.1000 HU 85 2 5 334
1899210N17291 1899 20 NA GM NOT_NAMED 1899-08-01 03:00:00 TS 28.5425 -84.2076 main 132 116 P_____________ AL021899 28.5425 -84.2076 HU 85 2 5 340
1899210N17291 1899 20 NA GM NOT_NAMED 1899-08-01 06:00:00 TS 28.8000 -84.3000 85 hurdat_atl main 116 91 O_____________ hurdat_atl AL021899 28.8000 -84.3000 HU 85 2 5 342
1899210N17291 1899 20 NA GM NOT_NAMED 1899-08-01 09:00:00 TS 29.0516 -84.3968 main 82 59 P_____________ AL021899 29.0516 -84.3968 HU 85 2 5 340
1899210N17291 1899 20 NA GM NOT_NAMED 1899-08-01 12:00:00 TS 29.3000 -84.5000 85 hurdat_atl main 59 34 O_____________ hurdat_atl AL021899 29.3000 -84.5000 HU 85 2 5 342
1899210N17291 1899 20 NA GM NOT_NAMED 1899-08-01 15:00:00 TS 29.5265 -84.5762 main 34 11 P_____________ AL021899 29.5265 -84.5762 HU 85 2 5 337
1899210N17291 1899 20 NA GM NOT_NAMED 1899-08-01 17:00:00 TS 29.7000 -84.7000 85 hurdat_atl main 11 0 O_____________ hurdat_atl AL021899 29.7000 -84.7000 L HU 85 2 7 325
1899210N17291 1899 20 NA GM NOT_NAMED 1899-08-01 18:00:00 TS 29.8000 -84.8000 85 979 hurdat_atl main 0 0 O_____________ hurdat_atl AL021899 29.8000 -84.8000 HU 85 979 2 7 325
1899210N17291 1899 20 NA NA NOT_NAMED 1899-08-01 21:00:00 TS 30.0999 -85.0272 main 0 0 P_____________ AL021899 30.0999 -85.0272 HU 72 1 7 330
1899210N17291 1899 20 NA NA NOT_NAMED 1899-08-02 00:00:00 TS 30.4000 -85.2000 60 hurdat_atl main 0 0 O_____________ hurdat_atl AL021899 30.4000 -85.2000 TS 60 0 7 332
1899210N17291 1899 20 NA NA NOT_NAMED 1899-08-02 03:00:00 TS 30.7075 -85.4001 main 0 0 P_____________ AL021899 30.7075 -85.4001 TS 52 0 7 330
1899210N17291 1899 20 NA NA NOT_NAMED 1899-08-02 06:00:00 TS 31.0000 -85.6000 45 hurdat_atl main 0 0 O_____________ hurdat_atl AL021899 31.0000 -85.6000 TS 45 0 6 327
1899210N17291 1899 20 NA NA NOT_NAMED 1899-08-02 09:00:00 TS 31.2349 -85.7929 main 0 0 P_____________ AL021899 31.2349 -85.7929 TS 40 0 6 326
1899210N17291 1899 20 NA NA NOT_NAMED 1899-08-02 12:00:00 TS 31.5000 -86.0000 35 hurdat_atl main 0 0 O_____________ hurdat_atl AL021899 31.5000 -86.0000 TS 35 0 7 329
1899210N17291 1899 20 NA NA NOT_NAMED 1899-08-02 15:00:00 TS 31.8676 -86.2393 main 0 0 P_____________ AL021899 31.8676 -86.2393 TS 32 -1 9 332
1899210N17291 1899 20 NA NA NOT_NAMED 1899-08-02 18:00:00 TS 32.3000 -86.5000 30 hurdat_atl main 0 O_____________ hurdat_atl AL021899 32.3000 -86.5000 TD 30 -1 10 333

About IBTrACS Database

This database is a web-friendly format of International Best Track Archive for Climate Stewardship (IBTrACS), a global best track data archive curated by NOAA dating back to 1842.

Updated: 2021-12-08